createdAt,value
2023-04-14T00:01:53.940Z,51.90
2023-04-14T00:04:20.594Z,51.10
2023-04-14T00:06:47.190Z,51.30
2023-04-14T00:09:13.715Z,51.40
2023-04-14T00:11:40.190Z,51.30
2023-04-14T00:14:06.667Z,51.20
2023-04-14T00:16:33.229Z,51.10
2023-04-14T00:18:59.967Z,51.10
2023-04-14T00:21:26.656Z,51.00
2023-04-14T00:23:53.116Z,51.10
2023-04-14T00:26:19.616Z,51.20
2023-04-14T00:28:46.087Z,51.30
2023-04-14T00:31:12.636Z,51.20
2023-04-14T00:33:39.144Z,51.30
2023-04-14T00:36:05.626Z,51.40
2023-04-14T00:38:32.107Z,51.40
2023-04-14T00:40:58.571Z,51.50
2023-04-14T00:43:25.105Z,51.50
2023-04-14T00:45:52.143Z,51.50
2023-04-14T00:48:18.637Z,51.50
2023-04-14T00:50:45.117Z,51.40
2023-04-14T00:53:11.600Z,51.20
2023-04-14T00:55:38.092Z,51.20
2023-04-14T00:58:04.584Z,51.30
2023-04-14T01:00:31.089Z,51.30
2023-04-14T01:02:57.601Z,51.00
2023-04-14T01:05:24.240Z,50.90
2023-04-14T01:07:50.782Z,50.90
2023-04-14T01:10:17.247Z,50.90
2023-04-14T01:12:43.718Z,50.80
2023-04-14T01:15:10.206Z,50.90
2023-04-14T01:17:36.732Z,50.90
2023-04-14T01:20:03.246Z,50.90
2023-04-14T01:22:29.727Z,50.90
2023-04-14T01:24:56.217Z,50.80
2023-04-14T01:27:22.696Z,50.90
2023-04-14T01:29:49.179Z,50.80
2023-04-14T01:32:15.660Z,51.00
2023-04-14T01:34:42.143Z,51.30
2023-04-14T01:37:08.647Z,51.30
2023-04-14T01:39:35.132Z,51.20
2023-04-14T01:42:01.592Z,51.20
2023-04-14T01:44:28.074Z,51.30
2023-04-14T01:46:54.557Z,51.30
2023-04-14T01:49:21.137Z,51.40
2023-04-14T01:51:47.634Z,51.40
2023-04-14T01:54:14.125Z,51.40
2023-04-14T01:56:40.615Z,51.40
2023-04-14T01:59:07.115Z,51.40
2023-04-14T02:01:33.662Z,51.50
2023-04-14T02:04:00.422Z,51.50
2023-04-14T02:06:27.020Z,51.30
2023-04-14T02:08:53.507Z,51.10
2023-04-14T02:11:19.987Z,51.10
2023-04-14T02:13:46.513Z,51.10
2023-04-14T02:16:13.019Z,51.10
2023-04-14T02:18:39.537Z,51.00
2023-04-14T02:21:06.020Z,50.90
2023-04-14T02:23:32.513Z,50.90
2023-04-14T02:25:58.991Z,50.90
2023-04-14T02:28:25.462Z,51.10
2023-04-14T02:30:51.971Z,51.30
2023-04-14T02:33:18.484Z,51.10
2023-04-14T02:35:44.949Z,51.10
2023-04-14T02:38:11.419Z,51.30
2023-04-14T02:40:37.927Z,51.20
2023-04-14T02:43:04.399Z,51.00
2023-04-14T02:45:30.886Z,51.10
2023-04-14T02:47:57.436Z,51.00
2023-04-14T02:50:23.931Z,50.90
2023-04-14T02:52:50.405Z,50.80
2023-04-14T02:55:16.885Z,50.80
2023-04-14T02:57:44.438Z,50.80
2023-04-14T03:00:10.909Z,50.90
2023-04-14T03:02:37.472Z,50.80
2023-04-14T03:05:04.027Z,50.80
2023-04-14T03:07:30.495Z,50.80
2023-04-14T03:09:56.998Z,50.90
2023-04-14T03:12:23.456Z,50.90
2023-04-14T03:17:40.451Z,50.80
2023-04-14T03:20:07.058Z,50.80
2023-04-14T03:22:33.582Z,50.80
2023-04-14T03:25:00.122Z,50.80
2023-04-14T03:27:26.624Z,50.80
2023-04-14T03:29:53.129Z,50.90
2023-04-14T03:32:19.663Z,50.80
2023-04-14T03:34:46.162Z,50.90
2023-04-14T03:37:12.646Z,51.00
2023-04-14T03:39:39.108Z,50.80
2023-04-14T03:42:05.616Z,50.80
2023-04-14T03:44:32.095Z,50.70
2023-04-14T03:46:58.694Z,50.50
2023-04-14T03:49:25.567Z,50.50
2023-04-14T03:51:52.044Z,50.50
2023-04-14T03:54:18.537Z,50.70
2023-04-14T03:56:45.002Z,50.80
2023-04-14T03:59:11.479Z,50.90
2023-04-14T04:01:37.983Z,50.60
2023-04-14T04:04:04.643Z,51.00
2023-04-14T04:06:31.252Z,50.60
2023-04-14T04:08:57.769Z,50.70
2023-04-14T04:11:24.266Z,50.80
2023-04-14T04:13:50.744Z,50.70
2023-04-14T04:16:17.268Z,50.70
2023-04-14T04:18:43.774Z,50.80
2023-04-14T04:21:10.248Z,50.80
2023-04-14T04:23:36.731Z,50.80
2023-04-14T04:26:04.343Z,50.80
2023-04-14T04:28:30.841Z,50.70
2023-04-14T04:30:57.304Z,50.50
2023-04-14T04:33:23.817Z,50.50
2023-04-14T04:35:50.315Z,50.60
2023-04-14T04:38:16.782Z,50.60
2023-04-14T04:40:43.296Z,50.50
2023-04-14T04:43:09.772Z,50.50
2023-04-14T04:45:36.248Z,50.70
2023-04-14T04:48:02.771Z,50.80
2023-04-14T04:50:29.269Z,50.70
2023-04-14T04:52:55.755Z,50.60
2023-04-14T04:55:22.233Z,50.60
2023-04-14T04:57:48.720Z,50.50
2023-04-14T05:00:15.196Z,50.50
2023-04-14T05:02:41.807Z,51.10
2023-04-14T05:05:08.341Z,50.60
2023-04-14T05:07:34.830Z,50.50
2023-04-14T05:10:01.365Z,50.60
2023-04-14T05:12:27.913Z,50.50
2023-04-14T05:14:54.391Z,50.30
2023-04-14T05:17:20.876Z,50.50
2023-04-14T05:19:47.374Z,50.70
2023-04-14T05:22:13.849Z,50.80
2023-04-14T05:24:40.322Z,50.80
2023-04-14T05:27:14.364Z,50.60
2023-04-14T05:29:41.354Z,50.70
2023-04-14T05:32:07.847Z,50.60
2023-04-14T05:34:34.315Z,50.70
2023-04-14T05:37:00.794Z,50.70
2023-04-14T05:39:27.275Z,50.70
2023-04-14T05:41:53.758Z,50.60
2023-04-14T05:44:20.238Z,50.60
2023-04-14T05:46:46.835Z,50.70
2023-04-14T05:49:13.338Z,50.80
2023-04-14T05:51:39.832Z,50.80
2023-04-14T05:54:06.517Z,51.10
2023-04-14T05:56:32.983Z,51.10
2023-04-14T05:58:59.597Z,51.00
2023-04-14T06:01:26.100Z,51.10
2023-04-14T06:03:52.837Z,51.30
2023-04-14T06:06:19.645Z,51.20
2023-04-14T06:08:46.123Z,50.90
2023-04-14T06:11:12.607Z,50.70
2023-04-14T06:13:39.089Z,50.70
2023-04-14T06:16:05.642Z,50.60
2023-04-14T06:18:32.131Z,50.50
2023-04-14T06:20:58.602Z,50.40
2023-04-14T06:23:25.089Z,50.20
2023-04-14T06:25:51.550Z,50.40
2023-04-14T06:28:18.012Z,50.50
2023-04-14T06:30:44.491Z,50.50
2023-04-14T06:33:11.061Z,50.80
2023-04-14T06:35:37.573Z,50.80
2023-04-14T06:38:04.060Z,51.10
2023-04-14T06:40:30.523Z,51.20
2023-04-14T06:42:56.996Z,51.40
2023-04-14T06:45:23.457Z,51.20
2023-04-14T06:47:50.027Z,51.20
2023-04-14T06:50:16.564Z,51.20
2023-04-14T06:52:43.071Z,51.20
2023-04-14T06:55:09.540Z,51.40
2023-04-14T06:57:36.112Z,51.40
2023-04-14T07:00:02.604Z,51.50
2023-04-14T07:02:29.154Z,51.50
2023-04-14T07:04:55.752Z,51.50
2023-04-14T07:07:22.277Z,51.40
2023-04-14T07:09:48.808Z,51.60
2023-04-14T07:12:15.341Z,51.40
2023-04-14T07:14:41.827Z,51.60
2023-04-14T07:17:08.309Z,51.60
2023-04-14T07:19:34.798Z,51.80
2023-04-14T07:22:01.265Z,51.70
2023-04-14T07:24:27.744Z,51.60
2023-04-14T07:26:54.234Z,51.70
2023-04-14T07:29:20.716Z,51.80
2023-04-14T07:31:47.333Z,51.70
2023-04-14T07:34:13.879Z,51.60
2023-04-14T07:36:40.355Z,51.50
2023-04-14T07:39:06.859Z,51.90
2023-04-14T07:41:33.337Z,51.80
2023-04-14T07:44:00.012Z,51.70
2023-04-14T07:46:26.728Z,51.80
2023-04-14T07:48:53.213Z,51.80
2023-04-14T07:51:19.692Z,51.80
2023-04-14T07:53:46.180Z,51.80
2023-04-14T07:56:12.662Z,51.80
2023-04-14T07:58:39.152Z,51.80
2023-04-14T08:01:05.641Z,51.80
2023-04-14T08:03:32.229Z,51.70
2023-04-14T08:05:58.911Z,52.00
2023-04-14T08:08:25.387Z,51.90
2023-04-14T08:10:52.535Z,51.90
2023-04-14T08:13:19.030Z,52.00
2023-04-14T08:15:45.570Z,51.40
2023-04-14T08:18:12.103Z,51.80
2023-04-14T08:20:38.592Z,51.90
2023-04-14T08:23:05.067Z,51.60
2023-04-14T08:25:31.563Z,51.70
2023-04-14T08:27:58.073Z,51.80
2023-04-14T08:30:24.606Z,51.70
2023-04-14T08:32:51.253Z,51.60
2023-04-14T08:35:35.696Z,51.60
2023-04-14T08:38:04.257Z,51.60
2023-04-14T08:40:30.753Z,51.50
2023-04-14T08:42:57.211Z,51.60
2023-04-14T08:45:23.742Z,51.40
2023-04-14T08:47:50.296Z,51.20
2023-04-14T08:50:16.859Z,51.30
2023-04-14T08:52:43.357Z,51.40
2023-04-14T08:55:09.939Z,51.40
2023-04-14T08:57:36.416Z,51.20
2023-04-14T09:00:02.892Z,51.70
2023-04-14T09:02:29.454Z,51.40
2023-04-14T09:04:56.072Z,51.20
2023-04-14T09:07:22.649Z,51.20
2023-04-14T09:09:49.145Z,51.20
2023-04-14T09:12:15.614Z,51.10
2023-04-14T09:14:42.083Z,50.90
2023-04-14T09:17:08.589Z,51.00
2023-04-14T09:19:35.066Z,51.10
2023-04-14T09:22:01.567Z,51.00
2023-04-14T09:24:30.009Z,51.40
2023-04-14T09:26:58.421Z,51.30
2023-04-14T09:29:24.898Z,51.10
2023-04-14T09:31:51.473Z,51.40
2023-04-14T09:34:18.036Z,51.50
2023-04-14T09:36:44.594Z,51.30
2023-04-14T09:39:11.077Z,51.40
2023-04-14T09:41:37.562Z,51.40
2023-04-14T09:44:04.155Z,51.30
2023-04-14T09:46:30.689Z,51.50
2023-04-14T09:48:57.160Z,51.40
2023-04-14T09:51:23.645Z,51.60
2023-04-14T09:53:50.117Z,51.60
2023-04-14T09:56:16.623Z,51.60
2023-04-14T09:58:43.110Z,51.60
2023-04-14T10:01:09.638Z,51.60
2023-04-14T10:03:40.675Z,51.50
2023-04-14T10:06:07.200Z,51.70
2023-04-14T10:08:34.583Z,51.60
2023-04-14T10:11:01.066Z,51.60
2023-04-14T10:13:27.574Z,51.60
2023-04-14T10:15:54.142Z,51.70
2023-04-14T10:18:20.648Z,51.80
2023-04-14T10:20:47.116Z,51.80
2023-04-14T10:23:13.580Z,51.70
2023-04-14T10:25:40.087Z,51.70
2023-04-14T10:28:06.579Z,51.70
2023-04-14T10:30:33.068Z,51.70
2023-04-14T10:32:59.573Z,51.80
2023-04-14T10:35:26.068Z,51.90
2023-04-14T10:37:52.553Z,51.70
2023-04-14T10:40:19.083Z,51.60
2023-04-14T10:42:45.633Z,51.70
2023-04-14T10:45:12.122Z,51.70
2023-04-14T10:47:38.656Z,51.60
2023-04-14T10:50:05.142Z,51.60
2023-04-14T10:52:31.616Z,51.60
2023-04-14T10:54:58.095Z,52.20
2023-04-14T10:57:24.634Z,51.60
2023-04-14T10:59:51.130Z,51.40
2023-04-14T11:02:17.758Z,51.40
2023-04-14T11:04:44.261Z,51.40
2023-04-14T11:07:10.731Z,51.20
2023-04-14T11:09:37.221Z,51.10
2023-04-14T11:12:03.760Z,51.10
2023-04-14T11:14:30.228Z,51.30
2023-04-14T11:17:04.155Z,51.10
2023-04-14T11:19:31.309Z,50.90
2023-04-14T11:21:57.792Z,50.90
2023-04-14T11:24:24.259Z,50.90
2023-04-14T11:26:50.726Z,50.80
2023-04-14T11:29:17.207Z,50.90
2023-04-14T11:31:43.725Z,50.90
2023-04-14T11:34:10.255Z,50.80
2023-04-14T11:36:36.730Z,50.60
2023-04-14T11:39:03.358Z,50.60
2023-04-14T11:41:30.021Z,50.50
2023-04-14T11:43:56.504Z,50.50
2023-04-14T11:46:23.005Z,50.60
2023-04-14T11:48:49.506Z,50.50
2023-04-14T11:51:15.980Z,50.60
2023-04-14T11:53:42.448Z,50.60
2023-04-14T11:56:08.904Z,50.60
2023-04-14T11:58:35.383Z,50.60
2023-04-14T12:01:01.853Z,50.60
2023-04-14T12:03:29.076Z,50.70
2023-04-14T12:05:56.097Z,50.70
2023-04-14T12:08:23.915Z,50.70
2023-04-14T12:10:52.717Z,50.70
2023-04-14T12:13:19.193Z,50.70
2023-04-14T12:15:45.702Z,50.80
2023-04-14T12:18:12.329Z,50.80
2023-04-14T12:20:38.833Z,50.80
2023-04-14T12:23:05.328Z,50.80
2023-04-14T12:25:31.830Z,50.90
2023-04-14T12:27:58.308Z,50.90
2023-04-14T12:30:24.793Z,50.80
2023-04-14T12:32:51.318Z,50.90
2023-04-14T12:35:17.844Z,51.00
2023-04-14T12:37:44.329Z,51.00
2023-04-14T12:40:12.452Z,51.00
2023-04-14T12:42:39.086Z,51.00
2023-04-14T12:45:05.557Z,51.00
2023-04-14T12:47:32.049Z,51.00
2023-04-14T12:49:58.524Z,51.00
2023-04-14T12:52:25.025Z,51.00
2023-04-14T12:54:51.527Z,51.00
2023-04-14T12:57:17.990Z,51.10
2023-04-14T12:59:44.481Z,51.10
2023-04-14T13:02:11.069Z,51.10
2023-04-14T13:04:37.789Z,51.10
2023-04-14T13:07:04.259Z,51.10
2023-04-14T13:09:30.743Z,51.20
2023-04-14T13:11:57.222Z,51.20
2023-04-14T13:14:23.710Z,51.20
2023-04-14T13:16:50.202Z,51.10
2023-04-14T13:19:16.779Z,51.20
2023-04-14T13:21:43.256Z,51.20
2023-04-14T13:24:09.747Z,51.20
2023-04-14T13:26:36.225Z,51.20
2023-04-14T13:29:03.090Z,51.20
2023-04-14T13:31:29.892Z,51.20
2023-04-14T13:33:56.462Z,51.20
2023-04-14T13:36:22.958Z,51.20
2023-04-14T13:38:49.433Z,51.20
2023-04-14T13:41:15.885Z,51.20
2023-04-14T13:43:42.359Z,51.20
2023-04-14T13:46:08.982Z,51.20
2023-04-14T13:48:35.542Z,51.20
2023-04-14T13:51:02.053Z,51.20
2023-04-14T13:53:28.553Z,51.20
2023-04-14T13:55:55.027Z,51.20
2023-04-14T13:58:21.487Z,51.20
2023-04-14T14:00:47.963Z,51.20
2023-04-14T14:03:14.532Z,51.20
2023-04-14T14:05:41.173Z,51.10
2023-04-14T14:08:07.644Z,51.00
2023-04-14T14:10:34.145Z,51.00
2023-04-14T14:13:00.633Z,50.90
2023-04-14T14:15:27.213Z,50.90
2023-04-14T14:17:53.731Z,50.60
2023-04-14T14:20:22.833Z,50.40
2023-04-14T14:22:49.316Z,50.40
2023-04-14T14:25:20.366Z,50.40
2023-04-14T14:27:47.841Z,50.40
2023-04-14T14:30:14.336Z,50.40
2023-04-14T14:32:40.823Z,50.40
2023-04-14T14:35:07.305Z,50.50
2023-04-14T14:37:33.826Z,50.40
2023-04-14T14:40:00.333Z,50.30
2023-04-14T14:42:26.838Z,50.20
2023-04-14T14:44:53.375Z,50.10
2023-04-14T14:47:19.918Z,50.10
2023-04-14T14:49:58.945Z,50.10
2023-04-14T14:52:32.618Z,50.80
2023-04-14T14:54:59.150Z,50.20
2023-04-14T14:57:25.646Z,50.30
2023-04-14T14:59:52.119Z,50.20
2023-04-14T15:02:18.636Z,50.20
2023-04-14T15:04:45.237Z,50.30
2023-04-14T15:07:11.752Z,50.40
2023-04-14T15:09:38.231Z,50.40
2023-04-14T15:12:04.716Z,50.40
2023-04-14T15:14:31.204Z,50.50
2023-04-14T15:16:57.693Z,50.50
2023-04-14T15:19:24.212Z,50.60
2023-04-14T15:21:50.681Z,50.50
2023-04-14T15:24:17.143Z,50.40
2023-04-14T15:26:43.640Z,50.50
2023-04-14T15:29:10.127Z,50.50
2023-04-14T15:31:36.621Z,50.60
2023-04-14T15:34:03.196Z,50.60
2023-04-14T15:36:29.812Z,50.70
2023-04-14T15:38:56.287Z,50.60
2023-04-14T15:41:22.852Z,50.70
2023-04-14T15:43:49.322Z,50.80
2023-04-14T15:46:15.815Z,50.80
2023-04-14T15:48:42.305Z,50.80
2023-04-14T15:51:08.778Z,50.90
2023-04-14T15:53:36.460Z,50.90
2023-04-14T15:56:02.931Z,50.90
2023-04-14T15:58:29.429Z,50.90
2023-04-14T16:00:55.959Z,50.90
2023-04-14T16:03:22.590Z,50.80
2023-04-14T16:05:49.148Z,50.80
2023-04-14T16:08:15.652Z,50.80
2023-04-14T16:10:42.136Z,50.90
2023-04-14T16:13:08.554Z,50.80
2023-04-14T16:15:35.045Z,50.90
2023-04-14T16:18:01.592Z,50.90
2023-04-14T16:20:28.087Z,50.90
2023-04-14T16:22:54.590Z,50.90
2023-04-14T16:25:22.147Z,50.80
2023-04-14T16:27:48.704Z,50.70
2023-04-14T16:30:15.185Z,50.80
2023-04-14T16:32:41.669Z,50.80
2023-04-14T16:35:08.180Z,50.80
2023-04-14T16:37:34.665Z,50.80
2023-04-14T16:40:01.299Z,50.80
2023-04-14T16:42:27.834Z,50.80
2023-04-14T16:44:54.320Z,50.90
2023-04-14T16:47:20.870Z,50.90
2023-04-14T16:49:47.390Z,50.90
2023-04-14T16:52:13.881Z,50.80
2023-04-14T16:54:40.331Z,51.00
2023-04-14T16:57:11.000Z,50.90
2023-04-14T16:59:37.490Z,50.90
2023-04-14T17:02:04.124Z,50.80
2023-04-14T17:04:30.919Z,50.90
2023-04-14T17:06:57.565Z,50.90
2023-04-14T17:09:24.052Z,50.90
2023-04-14T17:11:50.525Z,50.80
2023-04-14T17:14:17.014Z,50.90
2023-04-14T17:16:43.537Z,50.90
2023-04-14T17:19:10.062Z,50.90
2023-04-14T17:21:36.542Z,50.80
2023-04-14T17:24:03.185Z,50.90
2023-04-14T17:26:29.762Z,50.90
2023-04-14T17:28:56.240Z,50.90
2023-04-14T17:31:22.762Z,50.90
2023-04-14T17:33:49.265Z,50.90
2023-04-14T17:36:15.766Z,50.90
2023-04-14T17:38:42.252Z,50.90
2023-04-14T17:41:09.523Z,50.90
2023-04-14T17:43:37.408Z,51.00
2023-04-14T17:46:03.920Z,51.10
2023-04-14T17:48:30.381Z,51.10
2023-04-14T17:50:56.860Z,51.10
2023-04-14T17:53:23.322Z,51.10
2023-04-14T17:55:49.805Z,51.10
2023-04-14T17:58:16.293Z,51.10
2023-04-14T18:00:42.762Z,51.20
2023-04-14T18:03:09.339Z,51.20
2023-04-14T18:05:35.886Z,51.20
2023-04-14T18:08:02.350Z,51.10
2023-04-14T18:10:28.832Z,51.20
2023-04-14T18:12:55.289Z,51.30
2023-04-14T18:15:21.762Z,51.20
2023-04-14T18:17:48.258Z,51.20
2023-04-14T18:20:14.750Z,51.30
2023-04-14T18:22:41.229Z,51.20
2023-04-14T18:25:07.695Z,51.30
2023-04-14T18:30:03.551Z,51.20
2023-04-14T18:32:30.074Z,51.20
2023-04-14T18:34:56.611Z,51.10
2023-04-14T18:37:23.071Z,51.20
2023-04-14T18:39:49.541Z,51.20
2023-04-14T18:42:16.045Z,51.20
2023-04-14T18:44:42.516Z,51.20
2023-04-14T18:47:08.995Z,51.30
2023-04-14T18:49:35.465Z,51.20
2023-04-14T18:52:05.042Z,51.30
2023-04-14T18:54:31.506Z,51.20
2023-04-14T18:56:57.982Z,51.20
2023-04-14T18:59:24.520Z,51.30
2023-04-14T19:01:51.075Z,51.20
2023-04-14T19:04:17.695Z,51.30
2023-04-14T19:06:44.197Z,51.30
2023-04-14T19:09:10.678Z,51.20
2023-04-14T19:11:41.089Z,51.30
2023-04-14T19:14:07.554Z,51.10
2023-04-14T19:16:34.077Z,51.30
2023-04-14T19:19:00.684Z,51.30
2023-04-14T19:21:27.516Z,51.30
2023-04-14T19:23:53.990Z,51.40
2023-04-14T19:26:20.456Z,51.30
2023-04-14T19:28:46.920Z,51.40
2023-04-14T19:31:13.401Z,51.30
2023-04-14T19:33:39.908Z,51.30
2023-04-14T19:36:06.419Z,51.40
2023-04-14T19:38:32.900Z,51.30
2023-04-14T19:40:59.383Z,51.40
2023-04-14T19:43:25.850Z,51.30
2023-04-14T19:45:52.339Z,51.40
2023-04-14T19:48:23.518Z,52.00
2023-04-14T19:50:50.672Z,51.30
2023-04-14T19:53:17.144Z,51.40
2023-04-14T19:55:43.611Z,51.30
2023-04-14T19:58:10.104Z,51.40
2023-04-14T20:00:36.574Z,51.30
2023-04-14T20:03:03.132Z,51.30
2023-04-14T20:05:29.666Z,51.40
2023-04-14T20:07:56.129Z,51.40
2023-04-14T20:10:22.586Z,51.30
2023-04-14T20:12:49.067Z,51.30
2023-04-14T20:15:17.074Z,51.40
2023-04-14T20:17:43.621Z,51.40
2023-04-14T20:20:10.150Z,51.30
2023-04-14T20:22:36.624Z,51.30
2023-04-14T20:25:03.100Z,51.30
2023-04-14T20:27:35.195Z,51.20
2023-04-14T20:30:01.727Z,51.40
2023-04-14T20:32:28.254Z,51.30
2023-04-14T20:34:54.750Z,51.30
2023-04-14T20:37:21.230Z,51.30
2023-04-14T20:39:47.729Z,51.30
2023-04-14T20:42:14.216Z,51.20
2023-04-14T20:44:40.680Z,51.30
2023-04-14T20:47:07.176Z,51.80
2023-04-14T20:49:33.637Z,51.20
2023-04-14T20:52:05.175Z,51.30
2023-04-14T20:54:31.637Z,51.30
2023-04-14T20:56:58.099Z,51.30
2023-04-14T20:59:24.573Z,51.30
2023-04-14T21:01:51.133Z,51.20
2023-04-14T21:04:17.829Z,51.20
2023-04-14T21:06:44.409Z,51.20
2023-04-14T21:09:10.887Z,51.20
2023-04-14T21:11:37.372Z,51.20
2023-04-14T21:15:40.489Z,51.20
2023-04-14T21:16:50.337Z,51.10
2023-04-14T21:19:16.851Z,51.10
2023-04-14T21:21:43.331Z,51.00
2023-04-14T21:24:09.822Z,51.00
2023-04-14T21:26:36.288Z,51.10
2023-04-14T21:29:03.025Z,51.00
2023-04-14T21:31:29.665Z,51.10
2023-04-14T21:33:56.183Z,51.00
2023-04-14T21:36:22.644Z,51.00
2023-04-14T21:38:49.119Z,51.10
2023-04-14T21:41:15.581Z,51.10
2023-04-14T21:43:42.048Z,51.00
2023-04-14T21:46:08.545Z,51.00
2023-04-14T21:48:35.213Z,51.00
2023-04-14T21:51:01.703Z,51.00
2023-04-14T21:53:28.185Z,51.00
2023-04-14T21:55:58.824Z,51.00
2023-04-14T21:58:36.019Z,51.10
2023-04-14T22:01:02.554Z,51.00
2023-04-14T22:03:29.279Z,51.10
2023-04-14T22:05:55.805Z,51.10
2023-04-14T22:08:22.291Z,51.00
2023-04-14T22:10:48.758Z,51.00
2023-04-14T22:13:15.251Z,51.00
2023-04-14T22:15:41.706Z,51.00
2023-04-14T22:18:08.196Z,51.00
2023-04-14T22:20:34.676Z,50.90
2023-04-14T22:23:01.172Z,51.00
2023-04-14T22:25:27.664Z,51.00
2023-04-14T22:27:54.148Z,51.50
2023-04-14T22:30:20.614Z,51.00
2023-04-14T22:32:47.159Z,51.00
2023-04-14T22:35:13.676Z,51.00
2023-04-14T22:37:40.141Z,51.00
2023-04-14T22:40:06.623Z,51.10
2023-04-14T22:42:33.095Z,51.10
2023-04-14T22:44:59.580Z,51.00
2023-04-14T22:47:26.076Z,51.20
2023-04-14T22:49:52.562Z,51.10
2023-04-14T22:52:19.030Z,51.00
2023-04-14T22:54:45.508Z,51.70
2023-04-14T22:57:11.984Z,51.00
2023-04-14T22:59:38.457Z,51.10
2023-04-14T23:02:05.052Z,51.00
2023-04-14T23:04:35.345Z,51.10
2023-04-14T23:07:01.935Z,51.20
2023-04-14T23:09:28.439Z,50.90
2023-04-14T23:11:54.913Z,51.00
2023-04-14T23:14:21.390Z,51.20
2023-04-14T23:16:47.874Z,51.00
2023-04-14T23:19:14.353Z,51.00
2023-04-14T23:21:40.819Z,50.90
2023-04-14T23:24:07.321Z,51.10
2023-04-14T23:26:33.825Z,50.90
2023-04-14T23:29:00.653Z,51.10
2023-04-14T23:31:27.233Z,51.60
2023-04-14T23:33:53.742Z,51.00
2023-04-14T23:36:20.212Z,51.00
2023-04-14T23:38:46.697Z,51.00
2023-04-14T23:41:13.160Z,51.00
2023-04-14T23:43:39.653Z,51.00
2023-04-14T23:46:06.128Z,51.00
2023-04-14T23:48:32.658Z,51.10
2023-04-14T23:51:14.732Z,51.00
2023-04-14T23:53:44.758Z,51.00
2023-04-14T23:56:11.236Z,51.60
2023-04-14T23:58:37.715Z,51.00
